Time;durP1;ratioP1;P1;durP2;ratioP2;P2;SDS_P1;SDS_P2;PMS_P1;PMS_P2;Temp;Humidity;BMP_temperature;BMP_pressure;BME280_temperature;BME280_humidity;BME280_pressure;Samples;Min_cycle;Max_cycle;Signal;HPM_P1;HPM_P2
2021/09/01 00:02:05;;;;;;;9.87;6.10;;;;;;;;;;5072265;28;20536;-75
2021/09/01 00:04:32;;;;;;;10.03;6.87;;;;;;;;;;5072352;28;20450;-77
2021/09/01 00:06:59;;;;;;;9.23;6.53;;;;;;;;;;5071964;28;20473;-77
2021/09/01 00:09:27;;;;;;;7.30;6.40;;;;;;;;;;5071912;28;20524;-79
2021/09/01 00:11:56;;;;;;;7.27;6.53;;;;;;;;;;5072753;28;20476;-77
2021/09/01 00:14:23;;;;;;;9.37;7.40;;;;;;;;;;5071461;28;20438;-79
2021/09/01 00:16:50;;;;;;;8.53;6.90;;;;;;;;;;5072181;28;20537;-79
2021/09/01 00:19:17;;;;;;;8.10;6.60;;;;;;;;;;5071995;28;20531;-79
2021/09/01 00:21:44;;;;;;;8.40;7.40;;;;;;;;;;5071304;28;20968;-77
2021/09/01 00:24:12;;;;;;;7.17;6.17;;;;;;;;;;5072261;28;20536;-77
2021/09/01 00:26:39;;;;;;;10.20;7.57;;;;;;;;;;5071683;28;20438;-77
2021/09/01 00:29:07;;;;;;;11.97;8.27;;;;;;;;;;5072007;28;20858;-78
2021/09/01 00:31:34;;;;;;;9.27;7.27;;;;;;;;;;5071512;28;20442;-77
2021/09/01 00:34:02;;;;;;;9.23;7.57;;;;;;;;;;5071879;28;20540;-74
2021/09/01 00:36:29;;;;;;;7.63;6.67;;;;;;;;;;5071386;28;20536;-78
2021/09/01 00:38:56;;;;;;;11.23;7.10;;;;;;;;;;5072332;28;20806;-77
2021/09/01 00:41:24;;;;;;;7.77;6.90;;;;;;;;;;5071221;28;21243;-77
2021/09/01 00:43:52;;;;;;;8.97;8.00;;;;;;;;;;5071788;28;20472;-77
2021/09/01 00:46:21;;;;;;;8.90;6.73;;;;;;;;;;5072109;28;20485;-79
2021/09/01 00:48:48;;;;;;;8.63;7.03;;;;;;;;;;5071537;28;20538;-78
2021/09/01 00:51:16;;;;;;;9.23;7.53;;;;;;;;;;5071527;28;20476;-77
2021/09/01 00:53:45;;;;;;;7.90;6.57;;;;;;;;;;5070625;28;20934;-77
2021/09/01 00:56:14;;;;;;;7.80;6.80;;;;;;;;;;5071635;28;20446;-78
2021/09/01 00:58:42;;;;;;;10.03;7.37;;;;;;;;;;5071160;28;20658;-74
2021/09/01 01:03:55;;;;;;;9.70;7.87;;;;;;;;;;5070737;28;20518;-78
2021/09/01 01:06:22;;;;;;;9.73;6.57;;;;;;;;;;5071398;28;20544;-73
2021/09/01 01:08:50;;;;;;;7.87;6.60;;;;;;;;;;5071420;28;20447;-77
2021/09/01 01:11:17;;;;;;;9.70;8.33;;;;;;;;;;5070592;28;20477;-78
2021/09/01 01:13:44;;;;;;;10.27;7.43;;;;;;;;;;5070288;28;20458;-79
2021/09/01 01:16:12;;;;;;;24.40;7.50;;;;;;;;;;5071560;28;20488;-79
2021/09/01 01:18:40;;;;;;;8.50;7.27;;;;;;;;;;5071856;28;20540;-78
2021/09/01 01:21:09;;;;;;;10.50;8.10;;;;;;;;;;5093550;28;20533;-77
2021/09/01 01:23:36;;;;;;;9.73;7.20;;;;;;;;;;5094392;28;20444;-78
2021/09/01 01:26:05;;;;;;;10.03;6.80;;;;;;;;;;5091373;28;21002;-78
2021/09/01 01:28:32;;;;;;;9.63;7.97;;;;;;;;;;5073536;28;20532;-76
2021/09/01 01:30:59;;;;;;;10.10;7.23;;;;;;;;;;5070911;28;20488;-76
2021/09/01 01:33:26;;;;;;;8.40;7.60;;;;;;;;;;5070698;28;20517;-76
2021/09/01 01:35:53;;;;;;;9.50;7.03;;;;;;;;;;5071168;28;20528;-78
2021/09/01 01:38:21;;;;;;;8.60;7.70;;;;;;;;;;5070639;28;20485;-78
2021/09/01 01:40:49;;;;;;;8.40;7.50;;;;;;;;;;5070925;28;20556;-77
2021/09/01 01:43:17;;;;;;;8.83;7.70;;;;;;;;;;5070414;28;20520;-77
2021/09/01 01:45:47;;;;;;;7.90;6.37;;;;;;;;;;5070437;28;20541;-77
2021/09/01 01:48:16;;;;;;;10.07;7.67;;;;;;;;;;5070541;28;20473;-76
2021/09/01 01:50:46;;;;;;;8.90;7.27;;;;;;;;;;5070935;28;20454;-78
2021/09/01 01:53:13;;;;;;;11.60;8.73;;;;;;;;;;5069982;28;20536;-78
2021/09/01 01:55:40;;;;;;;10.00;7.90;;;;;;;;;;5070169;28;20837;-78
2021/09/01 01:58:08;;;;;;;11.13;9.00;;;;;;;;;;5070706;28;20541;-77
2021/09/01 02:00:36;;;;;;;12.90;8.83;;;;;;;;;;5070469;28;20580;-79
2021/09/01 02:03:04;;;;;;;11.90;8.83;;;;;;;;;;5070602;28;20472;-78
2021/09/01 02:05:31;;;;;;;12.50;8.50;;;;;;;;;;5070437;28;21021;-80
2021/09/01 02:07:58;;;;;;;11.43;8.60;;;;;;;;;;5070175;28;20889;-77
2021/09/01 02:10:25;;;;;;;9.47;7.60;;;;;;;;;;5070281;28;20930;-75
2021/09/01 02:12:53;;;;;;;10.50;7.10;;;;;;;;;;5069471;28;21025;-77
2021/09/01 02:15:20;;;;;;;9.97;7.70;;;;;;;;;;5070544;28;20595;-77
2021/09/01 02:17:48;;;;;;;9.53;7.60;;;;;;;;;;5070772;28;20449;-76
2021/09/01 02:20:16;;;;;;;10.07;7.93;;;;;;;;;;5070799;28;20588;-77
2021/09/01 02:22:43;;;;;;;9.53;7.30;;;;;;;;;;5072288;28;20478;-76
2021/09/01 02:25:12;;;;;;;13.53;8.43;;;;;;;;;;5074547;28;20516;-79
2021/09/01 02:27:39;;;;;;;11.87;8.27;;;;;;;;;;5073917;28;20531;-77
2021/09/01 02:30:07;;;;;;;11.73;8.33;;;;;;;;;;5074033;28;20528;-76
2021/09/01 02:32:34;;;;;;;8.60;7.60;;;;;;;;;;5074081;28;20441;-80
2021/09/01 02:35:03;;;;;;;11.30;8.37;;;;;;;;;;5073900;28;21024;-76
2021/09/01 02:37:30;;;;;;;11.43;8.00;;;;;;;;;;5064793;28;20882;-76
2021/09/01 02:39:57;;;;;;;11.80;9.30;;;;;;;;;;5074599;28;20548;-78
2021/09/01 02:42:24;;;;;;;13.63;9.00;;;;;;;;;;5073494;28;20575;-76
2021/09/01 02:44:52;;;;;;;11.17;8.83;;;;;;;;;;5073636;28;20528;-77
2021/09/01 02:47:19;;;;;;;10.67;8.03;;;;;;;;;;5073754;28;20902;-77
2021/09/01 02:49:46;;;;;;;10.43;7.80;;;;;;;;;;5074004;28;20449;-76
2021/09/01 02:52:14;;;;;;;11.30;9.53;;;;;;;;;;5073816;28;20452;-77
2021/09/01 02:54:41;;;;;;;13.40;8.67;;;;;;;;;;5072924;28;20696;-75
2021/09/01 02:57:09;;;;;;;8.87;7.60;;;;;;;;;;5074091;28;20528;-77
2021/09/01 02:59:36;;;;;;;13.50;8.63;;;;;;;;;;5073728;28;20441;-78
2021/09/01 03:02:03;;;;;;;8.97;7.27;;;;;;;;;;5073784;28;20517;-78
2021/09/01 03:04:30;;;;;;;11.33;8.43;;;;;;;;;;5073263;28;20467;-80
2021/09/01 03:06:57;;;;;;;11.77;8.40;;;;;;;;;;5073890;28;20523;-78
2021/09/01 03:09:26;;;;;;;15.93;8.00;;;;;;;;;;5074196;28;20533;-78
2021/09/01 03:11:53;;;;;;;16.07;9.63;;;;;;;;;;5073598;28;20464;-78
2021/09/01 03:14:20;;;;;;;11.57;9.00;;;;;;;;;;5073123;28;20453;-78
2021/09/01 03:16:47;;;;;;;14.63;9.40;;;;;;;;;;5073683;28;20446;-78
2021/09/01 03:19:14;;;;;;;12.20;10.13;;;;;;;;;;5073209;28;20453;-77
2021/09/01 03:21:41;;;;;;;11.10;9.43;;;;;;;;;;5072420;28;21040;-74
2021/09/01 03:24:09;;;;;;;12.27;8.00;;;;;;;;;;5072560;28;20524;-77
2021/09/01 03:26:37;;;;;;;14.80;9.10;;;;;;;;;;5072664;28;20448;-77
2021/09/01 03:29:04;;;;;;;11.83;9.63;;;;;;;;;;5073249;28;20448;-77
2021/09/01 03:31:31;;;;;;;14.60;9.30;;;;;;;;;;5073000;28;20477;-78
2021/09/01 03:33:59;;;;;;;11.90;9.40;;;;;;;;;;5071988;28;20524;-77
2021/09/01 03:36:27;;;;;;;10.67;8.27;;;;;;;;;;5073044;28;20469;-79
2021/09/01 03:38:54;;;;;;;13.37;8.43;;;;;;;;;;5072731;28;20453;-78
2021/09/01 03:41:21;;;;;;;12.00;8.40;;;;;;;;;;5072802;28;20550;-78
2021/09/01 03:43:50;;;;;;;10.37;8.13;;;;;;;;;;5072595;28;20528;-77
2021/09/01 03:46:17;;;;;;;10.87;8.10;;;;;;;;;;5073081;28;20525;-77
2021/09/01 03:48:44;;;;;;;12.93;9.10;;;;;;;;;;5072362;28;20841;-77
2021/09/01 03:51:11;;;;;;;13.00;9.00;;;;;;;;;;5072877;28;20441;-77
2021/09/01 03:53:39;;;;;;;14.53;9.43;;;;;;;;;;5071732;28;20456;-79
2021/09/01 03:56:06;;;;;;;12.20;9.90;;;;;;;;;;5072712;28;20537;-76
2021/09/01 03:58:33;;;;;;;13.30;8.10;;;;;;;;;;5072218;28;20484;-76
2021/09/01 04:01:02;;;;;;;12.70;8.20;;;;;;;;;;5072419;28;20481;-78
2021/09/01 04:03:29;;;;;;;12.37;8.13;;;;;;;;;;5072418;28;20437;-78
2021/09/01 04:05:56;;;;;;;11.73;9.10;;;;;;;;;;5072714;28;20970;-78
2021/09/01 04:08:23;;;;;;;11.10;9.00;;;;;;;;;;5071344;28;21005;-78
2021/09/01 04:10:50;;;;;;;12.63;9.90;;;;;;;;;;5072687;28;20453;-80
2021/09/01 04:13:17;;;;;;;15.83;9.50;;;;;;;;;;5072280;28;20450;-76
2021/09/01 04:15:44;;;;;;;11.30;8.87;;;;;;;;;;5072084;28;20492;-77
2021/09/01 04:18:13;;;;;;;12.63;8.00;;;;;;;;;;5072950;28;20954;-79
2021/09/01 04:20:40;;;;;;;14.03;9.13;;;;;;;;;;5072510;28;20821;-80
2021/09/01 04:23:07;;;;;;;11.93;8.83;;;;;;;;;;5072253;28;21045;-81
2021/09/01 04:25:34;;;;;;;12.67;8.57;;;;;;;;;;5072255;28;20438;-78
2021/09/01 04:28:02;;;;;;;11.33;8.00;;;;;;;;;;5072423;28;20870;-75
2021/09/01 04:30:29;;;;;;;14.63;10.97;;;;;;;;;;5071231;28;20441;-78
2021/09/01 04:32:56;;;;;;;19.10;13.60;;;;;;;;;;5071836;28;21025;-78
2021/09/01 04:35:24;;;;;;;10.63;8.70;;;;;;;;;;5077736;28;20444;-79
2021/09/01 04:37:52;;;;;;;12.93;8.27;;;;;;;;;;5072285;28;20516;-80
2021/09/01 04:40:19;;;;;;;10.13;8.57;;;;;;;;;;5072251;28;20548;-78
2021/09/01 04:42:46;;;;;;;10.20;7.67;;;;;;;;;;5071533;28;20874;-78
2021/09/01 04:45:13;;;;;;;9.77;7.63;;;;;;;;;;5071910;28;20531;-78
2021/09/01 04:47:40;;;;;;;15.60;11.63;;;;;;;;;;5068782;28;20571;-78
2021/09/01 04:50:08;;;;;;;20.97;15.60;;;;;;;;;;5071808;28;20448;-77
2021/09/01 04:52:36;;;;;;;12.77;8.73;;;;;;;;;;5073495;28;20802;-77
2021/09/01 04:55:04;;;;;;;10.93;8.60;;;;;;;;;;5071263;28;20438;-79
2021/09/01 04:57:31;;;;;;;11.23;8.97;;;;;;;;;;5071454;28;20854;-81
2021/09/01 04:59:58;;;;;;;12.10;9.30;;;;;;;;;;5072038;28;20806;-81
2021/09/01 05:02:26;;;;;;;14.00;11.20;;;;;;;;;;5070703;28;20512;-77
2021/09/01 05:04:53;;;;;;;25.20;19.43;;;;;;;;;;5071425;28;20820;-77
2021/09/01 05:07:20;;;;;;;14.07;9.43;;;;;;;;;;5070703;28;20477;-77
2021/09/01 05:09:48;;;;;;;13.57;9.77;;;;;;;;;;5071476;28;20583;-78
2021/09/01 05:12:16;;;;;;;10.60;8.67;;;;;;;;;;5071798;28;20465;-78
2021/09/01 05:14:43;;;;;;;11.90;8.67;;;;;;;;;;5071203;28;20485;-77
2021/09/01 05:17:10;;;;;;;12.63;8.40;;;;;;;;;;5071490;28;20786;-77
2021/09/01 05:19:37;;;;;;;14.23;8.80;;;;;;;;;;5071092;28;20480;-77
2021/09/01 05:22:06;;;;;;;13.43;9.20;;;;;;;;;;5071208;28;20568;-77
2021/09/01 05:24:38;;;;;;;12.03;8.77;;;;;;;;;;5070847;28;21021;-78
2021/09/01 05:27:10;;;;;;;12.93;9.10;;;;;;;;;;5071350;28;20953;-79
2021/09/01 05:29:38;;;;;;;12.70;8.20;;;;;;;;;;5071216;28;20448;-77
2021/09/01 05:32:07;;;;;;;13.63;8.77;;;;;;;;;;5071245;28;20896;-77
2021/09/01 05:34:34;;;;;;;12.07;9.07;;;;;;;;;;5070987;28;20437;-78
2021/09/01 05:37:01;;;;;;;11.30;9.10;;;;;;;;;;5071008;28;20457;-77
2021/09/01 05:39:28;;;;;;;12.57;8.83;;;;;;;;;;5071012;28;20488;-78
2021/09/01 05:41:56;;;;;;;11.87;9.30;;;;;;;;;;5071401;28;21056;-77
2021/09/01 05:44:25;;;;;;;12.17;9.03;;;;;;;;;;5070974;28;20457;-76
2021/09/01 05:46:52;;;;;;;12.70;9.00;;;;;;;;;;5071233;28;20469;-76
2021/09/01 05:49:22;;;;;;;12.13;8.80;;;;;;;;;;5070711;28;20573;-77
2021/09/01 05:51:49;;;;;;;13.40;9.67;;;;;;;;;;5071126;28;20472;-77
2021/09/01 05:54:16;;;;;;;15.30;10.57;;;;;;;;;;5071044;28;20536;-77
2021/09/01 05:56:45;;;;;;;11.77;9.33;;;;;;;;;;5070233;28;20477;-76
2021/09/01 05:59:15;;;;;;;12.60;9.53;;;;;;;;;;5071115;28;20481;-78
2021/09/01 06:01:45;;;;;;;11.43;9.30;;;;;;;;;;5070367;28;21000;-76
2021/09/01 06:04:14;;;;;;;13.07;8.53;;;;;;;;;;5071454;28;20441;-77
2021/09/01 06:06:44;;;;;;;13.63;10.30;;;;;;;;;;5070973;28;20537;-77
2021/09/01 06:09:11;;;;;;;11.30;8.80;;;;;;;;;;5070991;28;20433;-77
2021/09/01 06:11:40;;;;;;;14.57;10.03;;;;;;;;;;5070629;28;20956;-78
2021/09/01 06:14:07;;;;;;;11.23;9.57;;;;;;;;;;5070953;28;20557;-77
2021/09/01 06:16:34;;;;;;;15.53;10.00;;;;;;;;;;5070252;28;20445;-78
2021/09/01 06:19:03;;;;;;;12.20;10.87;;;;;;;;;;5071121;28;21355;-78
2021/09/01 06:21:30;;;;;;;13.77;10.73;;;;;;;;;;5070336;28;20438;-77
2021/09/01 06:23:57;;;;;;;13.47;10.67;;;;;;;;;;5071001;28;20894;-78
2021/09/01 06:26:25;;;;;;;10.87;9.20;;;;;;;;;;5070251;28;20782;-77
2021/09/01 06:28:51;;;;;;;9.90;8.90;;;12.40;99.90;;;;;;5070761;28;20867;-78
2021/09/01 06:31:18;;;;;;;12.37;9.70;;;13.60;99.90;;;;;;5070936;28;20441;-77
2021/09/01 06:33:45;;;;;;;13.40;10.83;;;13.50;99.90;;;;;;5070894;28;20436;-77
2021/09/01 06:36:14;;;;;;;14.00;10.20;;;13.40;99.90;;;;;;5070998;28;20811;-77
2021/09/01 06:38:41;;;;;;;16.13;9.80;;;13.60;99.90;;;;;;5070609;28;20457;-77
2021/09/01 06:41:07;;;;;;;13.90;11.00;;;13.80;99.90;;;;;;5070933;28;20524;-77
2021/09/01 06:43:34;;;;;;;17.63;12.00;;;13.90;99.90;;;;;;5070291;28;20509;-77
2021/09/01 06:46:01;;;;;;;12.90;10.00;;;13.70;99.90;;;;;;5070663;28;20701;-75
2021/09/01 06:48:28;;;;;;;17.60;12.03;;;13.70;99.90;;;;;;5070090;28;20999;-77
2021/09/01 06:50:55;;;;;;;13.80;11.50;;;13.70;99.90;;;;;;5070837;28;20440;-76
2021/09/01 06:53:23;;;;;;;19.13;12.30;;;13.70;99.90;;;;;;5070237;28;20441;-75
2021/09/01 06:55:50;;;;;;;18.13;13.00;;;13.50;99.90;;;;;;5070780;28;20433;-76
2021/09/01 06:58:19;;;;;;;19.83;14.27;;;13.60;99.90;;;;;;5070965;28;20895;-77
2021/09/01 07:00:46;;;;;;;19.03;14.20;;;13.50;99.90;;;;;;5070401;28;20866;-76
2021/09/01 07:03:13;;;;;;;17.30;14.20;;;13.60;99.90;;;;;;5070441;28;20572;-76
2021/09/01 07:05:40;;;;;;;17.00;13.83;;;13.50;99.90;;;;;;5070273;28;20528;-77
2021/09/01 07:08:14;;;;;;;19.20;13.40;;;;;;;;;;5070764;28;20441;-76
2021/09/01 07:10:43;;;;;;;20.13;13.30;;;;;;;;;;5073886;28;20844;-76
2021/09/01 07:13:11;;;;;;;23.47;13.80;;;;;;;;;;5074220;28;20480;-76
2021/09/01 07:15:38;;;;;;;16.20;11.97;;;;;;;;;;5073783;28;20530;-76
2021/09/01 07:18:05;;;;;;;19.63;14.87;;;;;;;;;;5074000;28;20449;-77
2021/09/01 07:20:32;;;;;;;19.60;13.93;;;;;;;;;;5073856;28;20477;-76
2021/09/01 07:23:00;;;;;;;16.80;14.27;;;;;;;;;;5074014;28;20993;-76
2021/09/01 07:25:27;;;;;;;16.27;13.20;;;;;;;;;;5073375;28;20528;-77
2021/09/01 07:27:56;;;;;;;18.00;14.53;;;;;;;;;;5073745;28;20548;-77
2021/09/01 07:30:23;;;;;;;19.10;14.03;;;;;;;;;;5073195;28;20484;-76
2021/09/01 07:32:50;;;;;;;21.17;16.97;;;;;;;;;;5073835;28;20450;-77
2021/09/01 07:35:17;;;;;;;26.23;18.03;;;;;;;;;;5073257;28;20481;-77
2021/09/01 07:37:45;;;;;;;26.90;17.27;;;;;;;;;;5072562;28;20507;-76
2021/09/01 07:40:13;;;;;;;25.83;18.73;;;;;;;;;;5073227;28;20441;-77
2021/09/01 07:42:41;;;;;;;19.37;15.57;;;;;;;;;;5072808;28;20581;-76
2021/09/01 07:45:10;;;;;;;24.60;17.50;;;;;;;;;;5073190;28;20536;-77
2021/09/01 07:47:37;;;;;;;26.13;16.80;;;;;;;;;;5072599;28;20495;-76
2021/09/01 07:50:05;;;;;;;27.77;16.47;;;;;;;;;;5072830;28;20440;-76
2021/09/01 07:52:32;;;;;;;23.77;16.47;;;;;;;;;;5072452;28;20441;-76
2021/09/01 07:54:59;;;;;;;22.77;16.90;;;;;;;;;;5073099;28;20803;-76
2021/09/01 07:57:26;;;;;;;25.77;16.87;;;;;;;;;;5072529;28;20448;-76
2021/09/01 07:59:53;;;;;;;21.87;16.40;;;13.50;99.90;;;;;;5072966;28;20524;-76
2021/09/01 08:02:21;;;;;;;20.40;16.03;;;14.90;99.90;;;;;;5072701;28;20484;-76
2021/09/01 08:04:48;;;;;;;22.57;16.97;;;14.90;99.90;;;;;;5072666;28;20441;-77
2021/09/01 08:07:15;;;;;;;22.13;16.53;;;15.00;99.90;;;;;;5072647;28;20499;-77
2021/09/01 08:09:42;;;;;;;21.00;15.83;;;15.00;99.90;;;;;;5072161;28;20532;-76
2021/09/01 08:12:10;;;;;;;21.40;16.80;;;15.10;99.90;;;;;;5072786;28;20445;-77
2021/09/01 08:14:37;;;;;;;19.60;15.83;;;15.20;99.90;;;;;;5072411;28;20453;-76
2021/09/01 08:17:04;;;;;;;21.03;16.03;;;15.20;99.90;;;;;;5072364;28;20461;-77
2021/09/01 08:19:32;;;;;;;18.13;15.10;;;15.20;99.90;;;;;;5071895;28;20485;-77
2021/09/01 08:21:59;;;;;;;22.10;16.60;;;15.30;99.90;;;;;;5072363;28;20499;-76
2021/09/01 08:24:26;;;;;;;22.13;15.27;;;15.30;99.90;;;;;;5071967;28;20476;-77
2021/09/01 08:26:53;;;;;;;21.33;15.60;;;15.30;99.90;;;;;;5072595;28;20529;-77
2021/09/01 08:29:20;;;;;;;24.03;14.00;;;15.40;99.90;;;;;;5072417;28;20437;-76
2021/09/01 08:31:47;;;;;;;17.73;14.80;;;15.50;99.90;;;;;;5072168;28;20452;-77
2021/09/01 08:34:14;;;;;;;25.97;13.60;;;15.60;99.90;;;;;;5072478;28;20882;-78
2021/09/01 08:36:42;;;;;;;18.77;13.73;;;15.60;99.90;;;;;;5071939;28;20468;-77
2021/09/01 08:39:09;;;;;;;16.50;12.93;;;15.60;99.90;;;;;;5072222;28;20488;-77
2021/09/01 08:41:38;;;;;;;16.77;13.40;;;15.80;99.90;;;;;;5071762;28;20446;-77
2021/09/01 08:44:05;;;;;;;15.77;13.10;;;15.80;99.90;;;;;;5071840;28;20484;-76
2021/09/01 08:46:33;;;;;;;18.30;13.10;;;16.00;99.90;;;;;;5071476;28;20449;-76
2021/09/01 08:49:01;;;;;;;12.67;11.33;;;16.10;99.90;;;;;;5071936;28;20483;-76
2021/09/01 08:51:29;;;;;;;14.27;9.87;;;16.20;99.90;;;;;;5071520;28;20481;-76
2021/09/01 08:53:59;;;;;;;16.70;13.40;;;16.30;99.90;;;;;;5071803;28;20537;-76
2021/09/01 08:56:26;;;;;;;26.13;13.60;;;16.30;99.90;;;;;;5071175;28;20524;-76
2021/09/01 08:58:53;;;;;;;15.27;12.80;;;16.30;99.90;;;;;;5071695;28;20441;-77
2021/09/01 09:01:40;;;;;;;15.60;12.60;;;16.40;99.90;;;;;;5071691;28;20532;-76
2021/09/01 09:04:07;;;;;;;17.37;11.60;;;16.50;99.90;;;;;;5071521;28;20517;-77
2021/09/01 09:06:44;;;;;;;14.10;10.97;;;16.60;99.90;;;;;;5071226;28;20447;-77
2021/09/01 09:09:14;;;;;;;13.40;11.60;;;16.60;99.90;;;;;;5071578;28;20945;-76
2021/09/01 09:11:41;;;;;;;18.57;12.40;;;16.60;99.90;;;;;;5071072;28;20528;-77
2021/09/01 09:14:25;;;;;;;18.23;10.87;;;16.70;99.90;;;;;;5071721;28;20455;-76
2021/09/01 09:17:04;;;;;;;12.37;8.97;;;16.80;99.90;;;;;;5071334;28;20849;-76
2021/09/01 09:20:00;;;;;;;13.67;9.90;;;16.80;99.90;;;;;;5071310;28;20426;-77
2021/09/01 09:22:28;;;;;;;12.63;10.70;;;17.00;75.90;;;;;;5046932;28;20536;-76
2021/09/01 09:25:10;;;;;;;14.57;11.33;;;17.10;1.00;;;;;;5071487;28;20509;-77
2021/09/01 09:27:43;;;;;;;10.63;9.30;;;17.20;1.00;;;;;;5072540;28;20521;-77
2021/09/01 09:30:37;;;;;;;15.13;10.40;;;17.20;1.00;;;;;;5078474;28;20473;-76
2021/09/01 09:33:07;;;;;;;11.57;9.60;;;17.40;1.00;;;;;;5070651;28;21020;-76
2021/09/01 09:35:56;;;;;;;11.47;10.23;;;17.60;1.00;;;;;;5070757;28;20437;-76
2021/09/01 09:38:35;;;;;;;15.20;9.57;;;17.70;99.90;;;;;;5070574;28;20442;-76
2021/09/01 09:41:05;;;;;;;16.87;9.73;;;17.80;99.90;;;;;;5070841;28;20950;-75
2021/09/01 09:43:32;;;;;;;10.00;9.00;;;17.90;99.90;;;;;;5070466;28;20558;-75
2021/09/01 09:46:18;;;;;;;9.93;8.93;;;18.00;99.90;;;;;;5070922;28;20814;-75
2021/09/01 09:48:47;;;;;;;8.70;7.80;;;18.10;67.40;;;;;;5070596;28;20816;-75
2021/09/01 09:51:16;;;;;;;11.57;8.23;;;;;;;;;;5071373;28;20453;-75
2021/09/01 09:53:44;;;;;;;9.20;7.00;;;;;;;;;;5070254;28;20445;-75
2021/09/01 09:56:16;;;;;;;9.83;7.83;;;;;;;;;;5070917;28;20442;-76
2021/09/01 09:58:46;;;;;;;9.00;6.03;;;;;;;;;;5070390;28;20441;-76
2021/09/01 10:01:14;;;;;;;7.37;6.67;;;;;;;;;;5070681;28;20934;-76
2021/09/01 10:03:41;;;;;;;8.20;6.10;;;;;;;;;;5070648;28;20558;-77
2021/09/01 10:06:10;;;;;;;6.20;5.50;;;;;;;;;;5070914;28;20532;-77
2021/09/01 10:08:38;;;;;;;7.43;6.20;;;;;;;;;;5070464;28;20446;-77
2021/09/01 10:11:07;;;;;;;6.63;5.40;;;;;;;;;;5070783;28;20480;-76
2021/09/01 10:13:36;;;;;;;6.07;5.50;;;;;;;;;;5070289;28;20471;-76
2021/09/01 10:16:10;;;;;;;6.47;5.87;;;;;;;;;;5070414;28;20450;-75
2021/09/01 10:18:37;;;;;;;6.80;6.07;;;;;;;;;;5070306;28;20467;-76
2021/09/01 10:21:06;;;;;;;6.67;6.07;;;;;;;;;;5067941;28;20552;-76
2021/09/01 10:23:40;;;;;;;5.60;5.10;;;;;;;;;;5067667;28;21015;-76
2021/09/01 10:26:21;;;;;;;6.30;5.70;;;;;;;;;;5059023;28;20455;-76
2021/09/01 10:28:50;;;;;;;7.10;6.40;;;;;;;;;;5067762;28;20453;-76
2021/09/01 10:31:21;;;;;;;5.17;4.67;;;;;;;;;;5068382;28;20448;-76
2021/09/01 10:33:51;;;;;;;6.23;4.70;;;;;;;;;;5068558;28;20524;-76
2021/09/01 10:36:37;;;;;;;6.40;5.40;;;;;;;;;;5068776;28;20453;-75
2021/09/01 10:39:15;;;;;;;5.10;4.60;;;;;;;;;;5057128;28;20484;-76
2021/09/01 10:41:42;;;;;;;4.80;4.30;;;;;;;;;;5068174;28;20731;-75
2021/09/01 10:44:21;;;;;;;6.27;4.40;;;18.20;1.00;;;;;;5071760;28;20920;-75
2021/09/01 10:47:00;;;;;;;5.77;4.70;;;20.00;1.00;;;;;;5072370;28;20442;-75
2021/09/01 10:49:47;;;;;;;6.97;5.10;;;20.10;1.00;;;;;;5071366;28;20468;-75
2021/09/01 10:52:14;;;;;;;7.30;5.17;;;20.20;1.00;;;;;;5071786;28;20444;-75
2021/09/01 10:54:41;;;;;;;5.20;4.70;;;20.10;1.00;;;;;;5068228;28;20458;-76
2021/09/01 10:57:22;;;;;;;7.47;5.07;;;20.00;1.00;;;;;;5071340;28;20453;-76
2021/09/01 10:59:52;;;;;;;6.77;4.73;;;20.20;1.00;;;;;;5072429;28;20441;-76
2021/09/01 11:02:22;;;;;;;6.80;5.60;;;20.30;1.00;;;;;;5071869;28;20481;-76
2021/09/01 11:04:50;;;;;;;7.37;5.50;;;20.50;1.00;;;;;;5072108;28;20564;-75
2021/09/01 11:07:22;;;;;;;6.80;5.87;;;20.70;1.00;;;;;;5071979;28;20926;-75
2021/09/01 11:09:53;;;;;;;6.83;5.23;;;20.80;1.00;;;;;;5071970;28;20457;-76
2021/09/01 11:12:20;;;;;;;6.50;5.53;;;20.70;1.00;;;;;;5071533;28;20466;-77
2021/09/01 11:14:49;;;;;;;5.90;4.77;;;20.70;1.00;;;;;;5071754;28;21200;-76
2021/09/01 11:17:19;;;;;;;5.70;5.03;;;20.70;1.00;;;;;;5072018;28;20457;-76
2021/09/01 11:19:48;;;;;;;5.57;4.40;;;20.60;1.00;;;;;;5071728;28;20445;-75
2021/09/01 11:22:16;;;;;;;5.60;4.67;;;20.70;99.90;;;;;;5073094;28;20957;-76
2021/09/01 11:24:48;;;;;;;5.00;4.60;;;20.90;99.90;;;;;;5073331;28;21063;-75
2021/09/01 11:27:18;;;;;;;5.80;4.63;;;21.20;99.90;;;;;;5074191;28;20512;-76
2021/09/01 11:29:45;;;;;;;6.40;5.00;;;21.00;99.90;;;;;;5073113;28;20487;-76
2021/09/01 11:32:16;;;;;;;5.50;4.70;;;20.80;99.90;;;;;;5073601;28;20443;-77
2021/09/01 11:34:45;;;;;;;5.10;4.37;;;20.80;99.90;;;;;;5072848;28;20528;-76
2021/09/01 11:37:12;;;;;;;4.93;4.50;;;20.80;99.90;;;;;;5073272;28;20494;-76
2021/09/01 11:39:44;;;;;;;7.37;5.53;;;21.10;99.90;;;;;;5072621;28;20504;-76
2021/09/01 11:42:11;;;;;;;5.80;5.23;;;;;;;;;;5073310;28;20806;-75
2021/09/01 11:44:39;;;;;;;4.90;4.50;;;;;;;;;;5072942;28;20483;-76
2021/09/01 11:47:10;;;;;;;6.70;5.40;;;;;;;;;;5072848;28;20438;-76
2021/09/01 11:49:37;;;;;;;6.13;4.50;;;;;;;;;;5072793;28;20445;-76
2021/09/01 11:52:06;;;;;;;5.80;4.13;;;;;;;;;;5072853;28;20437;-75
2021/09/01 11:54:33;;;;;;;5.10;4.60;;;;;;;;;;5071750;28;20540;-76
2021/09/01 11:57:00;;;;;;;4.97;3.93;;;21.40;99.90;;;;;;5073060;28;20596;-77
2021/09/01 11:59:27;;;;;;;5.63;3.93;;;22.00;99.90;;;;;;5072742;28;20438;-75
2021/09/01 12:01:59;;;;;;;4.40;4.00;;;21.80;99.90;;;;;;5072850;28;20446;-76
2021/09/01 12:04:27;;;;;;;9.33;4.27;;;21.70;99.90;;;;;;5072157;28;20491;-74
2021/09/01 12:06:55;;;;;;;12.33;5.67;;;21.60;99.90;;;;;;5073087;28;20475;-76
2021/09/01 12:09:25;;;;;;;5.63;4.00;;;21.40;99.90;;;;;;5072142;28;20473;-75
2021/09/01 12:11:54;;;;;;;6.40;5.00;;;21.40;99.90;;;;;;5072971;28;20445;-76
2021/09/01 12:14:23;;;;;;;5.93;4.90;;;21.50;99.90;;;;;;5072692;28;20445;-76
2021/09/01 12:16:51;;;;;;;5.87;4.03;;;21.70;99.90;;;;;;5072610;28;20817;-76
2021/09/01 12:19:19;;;;;;;5.17;4.67;;;21.80;99.90;;;;;;5072429;28;20445;-77
2021/09/01 12:21:54;;;;;;;6.13;4.43;;;21.80;99.90;;;;;;5071965;28;20922;-77
2021/09/01 12:24:25;;;;;;;5.90;4.30;;;21.90;99.90;;;;;;5072329;28;20469;-76
2021/09/01 12:26:55;;;;;;;5.97;5.23;;;21.70;99.90;;;;;;5072485;28;20432;-76
2021/09/01 12:29:28;;;;;;;4.10;3.70;;;21.70;99.90;;;;;;5071733;28;20881;-75
2021/09/01 12:31:56;;;;;;;5.93;4.30;;;21.50;99.90;;;;;;5072170;28;20484;-76
2021/09/01 12:34:31;;;;;;;5.10;4.40;;;21.80;99.90;;;;;;5071764;28;20790;-75
2021/09/01 12:36:59;;;;;;;4.53;3.83;;;;;;;;;;5072349;28;20866;-76
2021/09/01 12:39:27;;;;;;;5.03;3.83;;;;;;;;;;5071409;28;20965;-75
2021/09/01 12:41:55;;;;;;;4.37;3.97;;;;;;;;;;5071931;28;20434;-75
2021/09/01 12:44:22;;;;;;;4.70;4.17;;;;;;;;;;5071855;28;20487;-75
2021/09/01 12:46:50;;;;;;;5.83;4.47;;;;;;;;;;5071940;28;20628;-76
2021/09/01 12:49:24;;;;;;;6.03;4.70;;;;;;;;;;5071536;28;20473;-75
2021/09/01 12:51:51;;;;;;;6.70;4.50;;;;;;;;;;5071893;28;20487;-75
2021/09/01 12:54:21;;;;;;;5.57;3.53;;;;;;;;;;5071561;28;20448;-75
2021/09/01 12:56:51;;;;;;;5.90;3.40;;;;;;;;;;5071899;28;20446;-75
2021/09/01 12:59:18;;;;;;;4.63;3.77;;;;;;;;;;5071919;28;20449;-75
2021/09/01 13:01:45;;;;;;;4.60;3.70;;;21.60;99.90;;;;;;5071219;28;20540;-75
2021/09/01 13:04:12;;;;;;;5.73;3.97;;;23.00;99.90;;;;;;5071441;28;20530;-75
2021/09/01 13:06:39;;;;;;;6.07;4.13;;;22.70;99.90;;;;;;5070234;28;20469;-75
2021/09/01 13:09:06;;;;;;;5.30;4.07;;;22.80;99.90;;;;;;5071325;28;20442;-75
2021/09/01 13:11:33;;;;;;;5.77;3.80;;;22.90;99.90;;;;;;5071393;28;20442;-76
2021/09/01 13:14:01;;;;;;;4.70;4.20;;;22.80;99.90;;;;;;5071694;28;20493;-76
2021/09/01 13:16:28;;;;;;;4.23;3.83;;;22.50;99.90;;;;;;5070918;28;20937;-75
2021/09/01 13:18:55;;;;;;;4.90;3.97;;;22.30;99.90;;;;;;5071330;28;20464;-75
2021/09/01 13:21:22;;;;;;;3.73;3.13;;;22.10;99.90;;;;;;5070860;28;20450;-75
2021/09/01 13:23:49;;;;;;;5.10;3.60;;;22.20;99.90;;;;;;5071526;28;20481;-76
2021/09/01 13:26:16;;;;;;;4.87;3.97;;;22.20;99.90;;;;;;5071294;28;20528;-76
2021/09/01 13:28:43;;;;;;;5.87;4.20;;;22.10;99.90;;;;;;5070935;28;20524;-76
2021/09/01 13:31:12;;;;;;;4.80;3.53;;;22.00;99.90;;;;;;5071149;28;20503;-75
2021/09/01 13:33:39;;;;;;;4.73;4.07;;;22.20;99.90;;;;;;5070784;28;20786;-75
2021/09/01 13:36:08;;;;;;;7.13;4.03;;;22.30;99.90;;;;;;5070870;28;20449;-75
2021/09/01 13:38:35;;;;;;;5.80;4.13;;;22.70;99.90;;;;;;5070786;28;20452;-76
2021/09/01 13:41:02;;;;;;;4.60;3.50;;;23.00;99.90;;;;;;5070987;28;20453;-75
2021/09/01 13:43:29;;;;;;;4.70;3.90;;;23.00;99.90;;;;;;5070730;28;20484;-77
2021/09/01 13:45:56;;;;;;;4.83;3.43;;;23.20;99.90;;;;;;5070815;28;21007;-76
2021/09/01 13:48:25;;;;;;;4.50;3.53;;;23.50;99.90;;;;;;5070359;28;20487;-75
2021/09/01 13:50:52;;;;;;;4.33;3.70;;;23.30;99.90;;;;;;5070752;28;20452;-75
2021/09/01 13:53:20;;;;;;;4.73;3.60;;;23.00;99.90;;;;;;5070604;28;20937;-76
2021/09/01 13:55:47;;;;;;;4.30;3.70;;;22.90;99.90;;;;;;5071017;28;20926;-76
2021/09/01 13:58:14;;;;;;;5.03;4.00;;;22.80;99.90;;;;;;5070922;28;20946;-75